Time;durP1;ratioP1;P1;durP2;ratioP2;P2;SDS_P1;SDS_P2;PMS_P1;PMS_P2;Temp;Humidity;BMP_temperature;BMP_pressure;BME280_temperature;BME280_humidity;BME280_pressure;Samples;Min_cycle;Max_cycle;Signal;HPM_P1;HPM_P2
2024/05/05 00:01:15;;;;;;;1.60;1.50;;;;;;;;;;5526319;26;20347;-81
2024/05/05 00:03:41;;;;;;;2.25;1.88;;;;;;;;;;5526255;26;20820;-81
2024/05/05 00:06:07;;;;;;;1.67;1.45;;;;;;;;;;5525605;26;20360;-81
2024/05/05 00:08:33;;;;;;;3.00;1.90;;;;;;;;;;5525992;26;20390;-81
2024/05/05 00:10:59;;;;;;;2.30;1.70;;;;;;;;;;5526067;26;20453;-81
2024/05/05 00:13:25;;;;;;;1.90;1.77;;;;;;;;;;5525871;26;20828;-81
2024/05/05 00:15:51;;;;;;;2.25;1.73;;;;;;;;;;5525904;26;20332;-81
2024/05/05 00:18:17;;;;;;;2.83;1.75;;;;;;;;;;5525302;26;20873;-80
2024/05/05 00:20:43;;;;;;;2.50;1.83;;;;;;;;;;5524671;26;20320;-81
2024/05/05 00:23:09;;;;;;;2.30;1.70;;;;;;;;;;5524257;26;20357;-81
2024/05/05 00:25:35;;;;;;;2.17;1.73;;;;;;;;;;5526155;26;20315;-81
2024/05/05 00:28:01;;;;;;;1.90;1.80;;;;;;;;;;5525976;26;20312;-80
2024/05/05 00:30:27;;;;;;;1.77;1.50;;;;;;;;;;5525147;26;20316;-80
2024/05/05 00:32:53;;;;;;;3.20;1.50;;;;;;;;;;5525671;26;20537;-81
2024/05/05 00:35:19;;;;;;;1.42;1.33;;;;;;;;;;5524722;26;20316;-81
2024/05/05 00:37:45;;;;;;;2.60;1.83;;;;;;;;;;5525165;26;20712;-81
2024/05/05 00:40:11;;;;;;;2.70;1.63;;;;;;;;;;5524772;26;20333;-80
2024/05/05 00:42:40;;;;;;;2.10;1.60;;;;;;;;;;5525326;26;20341;-80
2024/05/05 00:45:10;;;;;;;1.63;1.40;;;;;;;;;;5525380;26;20742;-80
2024/05/05 00:47:36;;;;;;;2.05;1.58;;;;;;;;;;5524487;26;20331;-81
2024/05/05 00:50:02;;;;;;;2.20;1.80;;;;;;;;;;5524564;26;20720;-81
2024/05/05 00:52:28;;;;;;;1.55;1.30;;;;;;;;;;5524470;26;20324;-82
2024/05/05 00:54:54;;;;;;;1.70;1.60;;;;;;;;;;5519104;26;20314;-82
2024/05/05 00:57:20;;;;;;;2.07;1.67;;;;;;;;;;5514802;26;20511;-82
2024/05/05 00:59:46;;;;;;;3.00;1.67;;;;;;;;;;5524767;26;20323;-81
2024/05/05 01:02:13;;;;;;;2.80;1.60;;;;;;;;;;5525256;26;20336;-81
2024/05/05 01:04:39;;;;;;;2.20;1.60;;;;;;;;;;5524621;26;20315;-80
2024/05/05 01:07:05;;;;;;;1.70;1.60;;;;;;;;;;5492207;26;20320;-82
2024/05/05 01:09:31;;;;;;;1.40;1.30;;;;;;;;;;5523921;26;20343;-81
2024/05/05 01:11:57;;;;;;;1.52;1.42;;;;;;;;;;5524128;26;20430;-82
2024/05/05 01:14:23;;;;;;;1.67;1.58;;;;;;;;;;5524688;26;20662;-81
2024/05/05 01:16:49;;;;;;;1.80;1.40;;;;;;;;;;5523698;26;20432;-81
2024/05/05 01:19:15;;;;;;;2.00;1.50;;;;;;;;;;5523789;26;20930;-82
2024/05/05 01:21:41;;;;;;;1.50;1.40;;;;;;;;;;5523970;26;20362;-81
2024/05/05 01:24:07;;;;;;;1.63;1.53;;;;;;;;;;5524170;26;20344;-82
2024/05/05 01:26:33;;;;;;;1.60;1.45;;;;;;;;;;5523525;26;20324;-82
2024/05/05 01:28:59;;;;;;;2.25;1.73;;;;;;;;;;5523614;26;20744;-81
2024/05/05 01:31:25;;;;;;;1.80;1.65;;;;;;;;;;5523536;26;20372;-81
2024/05/05 01:33:51;;;;;;;2.10;1.80;;;;;;;;;;5504021;26;20916;-81
2024/05/05 01:36:17;;;;;;;1.88;1.55;;;;;;;;;;5527451;26;20368;-81
2024/05/05 01:38:43;;;;;;;2.03;1.80;;;;;;;;;;5527096;26;20328;-80
2024/05/05 01:41:09;;;;;;;1.58;1.48;;;;;;;;;;5527031;26;20331;-80
2024/05/05 01:43:35;;;;;;;1.50;1.40;;;;;;;;;;5527967;26;20320;-82
2024/05/05 01:46:01;;;;;;;1.55;1.45;;;;;;;;;;5527681;26;20432;-81
2024/05/05 01:48:27;;;;;;;2.00;1.80;;;;;;;;;;5527252;26;20816;-81
2024/05/05 01:50:53;;;;;;;2.10;2.00;;;;;;;;;;5494950;26;20416;-81
2024/05/05 01:53:19;;;;;;;2.20;2.00;;;;;;;;;;5527109;26;20379;-81
2024/05/05 01:55:45;;;;;;;1.90;1.80;;;;;;;;;;5511552;26;20827;-82
2024/05/05 01:58:11;;;;;;;1.80;1.70;;;;;;;;;;5527342;26;20421;-82
2024/05/05 02:00:37;;;;;;;2.88;1.80;;;;;;;;;;5495388;26;20324;-82
2024/05/05 02:03:03;;;;;;;1.80;1.70;;;;;;;;;;5527570;26;20353;-82
2024/05/05 02:05:29;;;;;;;2.63;1.90;;;;;;;;;;5527624;26;20828;-82
2024/05/05 02:07:57;;;;;;;1.92;1.83;;;;;;;;;;5527358;26;20328;-82
2024/05/05 02:10:23;;;;;;;1.90;1.60;;;;;;;;;;5501705;26;20328;-82
2024/05/05 02:12:50;;;;;;;2.07;1.63;;;;;;;;;;5528469;26;20401;-82
2024/05/05 02:15:16;;;;;;;1.80;1.70;;;;;;;;;;5523431;26;20368;-82
2024/05/05 02:17:46;;;;;;;1.85;1.40;;;;;;;;;;5507529;26;20346;-82
2024/05/05 02:20:12;;;;;;;1.40;1.30;;;;;;;;;;5504173;26;20335;-82
2024/05/05 02:22:38;;;;;;;2.65;1.50;;;;;;;;;;5525865;26;20364;-82
2024/05/05 02:25:04;;;;;;;1.42;1.33;;;;;;;;;;5527842;26;20661;-82
2024/05/05 02:27:30;;;;;;;1.52;1.42;;;;;;;;;;5527779;26;20316;-82
2024/05/05 02:29:56;;;;;;;1.60;1.50;;;;;;;;;;5527676;26;20324;-82
2024/05/05 02:32:22;;;;;;;2.13;1.35;;;;;;;;;;5527198;26;20339;-82
2024/05/05 02:34:48;;;;;;;1.30;1.20;;;;;;;;;;5528059;26;20320;-82
2024/05/05 02:37:14;;;;;;;1.40;1.30;;;;;;;;;;5527263;26;20682;-82
2024/05/05 02:39:40;;;;;;;1.30;1.20;;;;;;;;;;5527648;26;20323;-82
2024/05/05 02:42:06;;;;;;;1.80;1.00;;;;;;;;;;5527120;26;20405;-82
2024/05/05 02:44:32;;;;;;;1.40;1.30;;;;;;;;;;5526710;26;20375;-79
2024/05/05 02:46:58;;;;;;;1.60;1.10;;;;;;;;;;5527339;26;20364;-79
2024/05/05 02:49:24;;;;;;;1.05;0.90;;;;;;;;;;5527271;26;20368;-79
2024/05/05 02:51:50;;;;;;;1.30;1.00;;;;;;;;;;5527361;26;20323;-79
2024/05/05 02:54:16;;;;;;;1.20;1.10;;;;;;;;;;5494748;26;20385;-79
2024/05/05 02:56:42;;;;;;;1.67;1.48;;;;;;;;;;5527547;26;20320;-79
2024/05/05 02:59:09;;;;;;;1.73;1.60;;;;;;;;;;5507000;26;20336;-79
2024/05/05 03:01:35;;;;;;;1.80;1.70;;;;;;;;;;5527288;26;20391;-79
2024/05/05 03:04:01;;;;;;;1.70;1.38;;;;;;;;;;5527621;26;20323;-79
2024/05/05 03:06:27;;;;;;;1.63;1.25;;;;;;;;;;5527227;26;20859;-79
2024/05/05 03:08:53;;;;;;;1.65;1.20;;;;;;;;;;5526471;26;20339;-80
2024/05/05 03:11:19;;;;;;;1.55;1.10;;;;;;;;;;5494668;26;20352;-79
2024/05/05 03:13:45;;;;;;;1.43;1.30;;;;;;;;;;5526706;26;20336;-80
2024/05/05 03:16:11;;;;;;;1.45;1.08;;;;;;;;;;5526682;26;20429;-79
2024/05/05 03:18:37;;;;;;;1.10;1.00;;;;;;;;;;5527101;26;20332;-79
2024/05/05 03:21:04;;;;;;;1.30;1.00;;;;;;;;;;5526967;26;20406;-79
2024/05/05 03:23:30;;;;;;;1.30;0.80;;;;;;;;;;5526389;26;20379;-79
2024/05/05 03:25:56;;;;;;;0.80;0.73;;;;;;;;;;5520755;26;20383;-80
2024/05/05 03:28:22;;;;;;;0.98;0.80;;;;;;;;;;5526423;26;20365;-79
2024/05/05 03:30:49;;;;;;;1.90;0.68;;;;;;;;;;5527132;26;20316;-79
2024/05/05 03:33:15;;;;;;;0.60;0.60;;;;;;;;;;5527532;26;20442;-79
2024/05/05 03:35:41;;;;;;;0.90;0.80;;;;;;;;;;5526152;26;20323;-79
2024/05/05 03:38:08;;;;;;;0.90;0.67;;;;;;;;;;5527675;26;20320;-80
2024/05/05 03:40:35;;;;;;;0.82;0.80;;;;;;;;;;5527006;26;20355;-79
2024/05/05 03:43:02;;;;;;;0.60;0.60;;;;;;;;;;5527090;26;20807;-79
2024/05/05 03:45:28;;;;;;;0.85;0.60;;;;;;;;;;5526846;26;20343;-79
2024/05/05 03:47:54;;;;;;;0.70;0.70;;;;;;;;;;5527289;26;20327;-79
2024/05/05 03:50:20;;;;;;;0.90;0.68;;;;;;;;;;5526222;26;20324;-79
2024/05/05 03:52:46;;;;;;;1.00;0.77;;;;;;;;;;5527026;26;20766;-79
2024/05/05 03:55:12;;;;;;;3.60;1.00;;;;;;;;;;5516556;26;20327;-79
2024/05/05 03:57:38;;;;;;;1.35;0.80;;;;;;;;;;5519477;26;20416;-79
2024/05/05 04:00:04;;;;;;;1.10;1.00;;;;;;;;;;5526671;26;20422;-79
2024/05/05 04:02:30;;;;;;;0.73;0.70;;;;;;;;;;5526524;26;20332;-79
2024/05/05 04:04:56;;;;;;;1.00;0.80;;;;;;;;;;5526658;26;20658;-81
2024/05/05 04:07:22;;;;;;;0.80;0.80;;;;;;;;;;5526295;26;20320;-81
2024/05/05 04:09:48;;;;;;;1.30;0.70;;;;;;;;;;5525777;26;20319;-81
2024/05/05 04:12:14;;;;;;;0.63;0.63;;;;;;;;;;5494079;26;20840;-81
2024/05/05 04:14:40;;;;;;;1.00;0.80;;;;;;;;;;5526816;26;20327;-81
2024/05/05 04:17:06;;;;;;;1.70;1.23;;;;;;;;;;5526776;26;20416;-81
2024/05/05 04:19:32;;;;;;;1.60;1.30;;;;;;;;;;5526116;26;20332;-81
2024/05/05 04:21:58;;;;;;;2.23;1.40;;;;;;;;;;5525836;26;20392;-81
2024/05/05 04:24:24;;;;;;;1.13;0.93;;;;;;;;;;5526383;26;20319;-81
2024/05/05 04:26:50;;;;;;;1.20;0.70;;;;;;;;;;5525791;26;20312;-82
2024/05/05 04:29:16;;;;;;;1.00;0.70;;;;;;;;;;5481018;26;20868;-81
2024/05/05 04:31:42;;;;;;;0.70;0.70;;;;;;;;;;5491550;26;20439;-81
2024/05/05 04:34:08;;;;;;;0.90;0.63;;;;;;;;;;5501075;26;20424;-81
2024/05/05 04:36:34;;;;;;;1.00;0.60;;;;;;;;;;5526077;26;20335;-81
2024/05/05 04:39:02;;;;;;;0.80;0.52;;;;;;;;;;5525825;26;20332;-81
2024/05/05 04:41:27;;;;;;;1.30;0.70;;;;;;;;;;5526114;26;20323;-81
2024/05/05 04:43:53;;;;;;;0.98;0.60;;;;;;;;;;5526347;26;20372;-81
2024/05/05 04:46:19;;;;;;;0.70;0.50;;;;;;;;;;5525759;26;20332;-81
2024/05/05 04:48:45;;;;;;;0.65;0.50;;;;;;;;;;5526590;26;20324;-81
2024/05/05 04:51:11;;;;;;;1.42;0.55;;;;;;;;;;5526404;26;20358;-82
2024/05/05 04:53:37;;;;;;;0.50;0.40;;;;;;;;;;5525786;26;20356;-81
2024/05/05 04:56:03;;;;;;;0.50;0.50;;;;;;;;;;5525328;26;20422;-81
2024/05/05 04:58:30;;;;;;;0.60;0.60;;;;;;;;;;5525279;26;20327;-81
2024/05/05 05:00:57;;;;;;;0.47;0.47;;;;;;;;;;5525686;26;20372;-81
2024/05/05 05:03:23;;;;;;;0.73;0.50;;;;;;;;;;5525024;26;20324;-81
2024/05/05 05:05:49;;;;;;;0.65;0.50;;;;;;;;;;5525369;26;20320;-82
2024/05/05 05:08:18;;;;;;;0.55;0.55;;;;;;;;;;5527085;26;20362;-81
2024/05/05 05:10:46;;;;;;;1.07;0.60;;;;;;;;;;5529180;26;20343;-81
2024/05/05 05:13:12;;;;;;;1.10;0.80;;;;;;;;;;5529266;26;20414;-81
2024/05/05 05:15:38;;;;;;;0.75;0.75;;;;;;;;;;5529186;26;20364;-82
2024/05/05 05:18:04;;;;;;;1.00;0.70;;;;;;;;;;5528788;26;20804;-82
2024/05/05 05:20:30;;;;;;;0.80;0.70;;;;;;;;;;5506799;26;20327;-81
2024/05/05 05:22:56;;;;;;;0.60;0.60;;;;;;;;;;5529261;26;20903;-82
2024/05/05 05:25:22;;;;;;;0.68;0.60;;;;;;;;;;5529201;26;20327;-83
2024/05/05 05:27:48;;;;;;;0.77;0.60;;;;;;;;;;5495277;26;20359;-83
2024/05/05 05:30:14;;;;;;;1.50;0.40;;;;;;;;;;5527332;26;20316;-81
2024/05/05 05:32:40;;;;;;;0.73;0.50;;;;;;;;;;5527822;26;20424;-83
2024/05/05 05:35:06;;;;;;;0.52;0.43;;;;;;;;;;5527646;26;20327;-83
2024/05/05 05:37:32;;;;;;;0.60;0.43;;;;;;;;;;5528387;26;20336;-83
2024/05/05 05:39:58;;;;;;;0.40;0.40;;;;;;;;;;5526842;26;20808;-82
2024/05/05 05:42:24;;;;;;;0.55;0.50;;;;;;;;;;5526688;26;20320;-83
2024/05/05 05:44:50;;;;;;;0.73;0.60;;;;;;;;;;5526891;26;20824;-83
2024/05/05 05:47:16;;;;;;;1.05;0.50;;;;;;;;;;5527104;26;20359;-84
2024/05/05 05:49:42;;;;;;;0.50;0.50;;;;;;;;;;5526818;26;20673;-83
2024/05/05 05:52:08;;;;;;;1.00;0.60;;;;;;;;;;5527165;26;20335;-83
2024/05/05 05:54:34;;;;;;;1.00;0.77;;;;;;;;;;5526439;26;20363;-83
2024/05/05 05:57:00;;;;;;;0.75;0.60;;;;;;;;;;5489246;26;20363;-84
2024/05/05 05:59:26;;;;;;;0.60;0.60;;;;;;;;;;5523541;26;20852;-82
2024/05/05 06:01:52;;;;;;;1.92;0.40;;;;;;;;;;5527931;26;20426;-83
2024/05/05 06:04:18;;;;;;;0.70;0.45;;;;;;;;;;5527511;26;20350;-83
2024/05/05 06:06:44;;;;;;;0.98;0.60;;;;;;;;;;5527511;26;21051;-83
2024/05/05 06:09:10;;;;;;;0.47;0.47;;;;;;;;;;5527309;26;20320;-84
2024/05/05 06:11:36;;;;;;;1.00;0.60;;;;;;;;;;5527886;26;20331;-84
2024/05/05 06:14:02;;;;;;;0.70;0.40;;;;;;;;;;5528146;26;20820;-83
2024/05/05 06:16:28;;;;;;;0.73;0.47;;;;;;;;;;5526856;26;20414;-83
2024/05/05 06:18:54;;;;;;;1.50;0.40;;;;;;;;;;5526739;26;20348;-83
2024/05/05 06:21:20;;;;;;;1.08;0.50;;;;;;;;;;5526053;26;20665;-83
2024/05/05 06:23:46;;;;;;;0.98;0.50;;;;;;;;;;5527128;26;20312;-83
2024/05/05 06:26:12;;;;;;;1.83;0.60;;;;;;;;;;5527509;26;20774;-82
2024/05/05 06:28:38;;;;;;;0.63;0.40;;;;;;;;;;5526549;26;20319;-82
2024/05/05 06:31:04;;;;;;;0.90;0.45;;;;;;;;;;5526444;26;20365;-82
2024/05/05 06:33:30;;;;;;;0.73;0.50;;;;;;;;;;5526036;26;20315;-83
2024/05/05 06:35:56;;;;;;;0.60;0.40;;;;;;;;;;5526797;26;20714;-83
2024/05/05 06:38:22;;;;;;;0.90;0.40;;;;;;;;;;5528392;26;20354;-82
2024/05/05 06:40:49;;;;;;;1.10;0.40;;;;;;;;;;5527554;26;20414;-83
2024/05/05 06:43:15;;;;;;;0.60;0.50;;;;;;;;;;5529578;26;20398;-82
2024/05/05 06:45:41;;;;;;;1.63;0.38;;;;;;;;;;5529609;26;20368;-82
2024/05/05 06:48:10;;;;;;;1.83;0.40;;;;;;;;;;5532837;26;20315;-82
2024/05/05 06:50:36;;;;;;;0.50;0.32;;;;;;;;;;5530417;26;20323;-83
2024/05/05 06:53:02;;;;;;;1.17;0.50;;;;;;;;;;5530964;26;20344;-83
2024/05/05 06:55:28;;;;;;;0.73;0.40;;;;;;;;;;5531181;26;20409;-83
2024/05/05 06:57:54;;;;;;;0.90;0.60;;;;;;;;;;5529770;26;20324;-82
2024/05/05 07:00:20;;;;;;;0.45;0.40;;;;;;;;;;5526818;26;20315;-82
2024/05/05 07:02:46;;;;;;;0.50;0.40;;;;;;;;;;5526458;26;20352;-81
2024/05/05 07:05:12;;;;;;;0.57;0.40;;;;;;;;;;5527098;26;20328;-82
2024/05/05 07:07:38;;;;;;;0.40;0.30;;;;;;;;;;5525988;26;20977;-81
2024/05/05 07:10:04;;;;;;;0.90;0.30;;;;;;;;;;5530549;26;20324;-81
2024/05/05 07:12:30;;;;;;;0.70;0.40;;;;;;;;;;5530531;26;20331;-82
2024/05/05 07:14:56;;;;;;;0.50;0.50;;;;;;;;;;5518599;26;21061;-81
2024/05/05 07:17:22;;;;;;;0.50;0.35;;;;;;;;;;5507091;26;20423;-82
2024/05/05 07:19:48;;;;;;;1.80;0.38;;;;;;;;;;5502890;26;20832;-81
2024/05/05 07:22:14;;;;;;;0.70;0.40;;;;;;;;;;5527581;26;20320;-81
2024/05/05 07:24:40;;;;;;;0.70;0.60;;;;;;;;;;5527543;26;20316;-81
2024/05/05 07:27:06;;;;;;;1.60;0.80;;;;;;;;;;5528172;26;20374;-81
2024/05/05 07:29:32;;;;;;;0.70;0.50;;;;;;;;;;5526931;26;20324;-81
2024/05/05 07:31:58;;;;;;;0.70;0.50;;;;;;;;;;5526796;26;20320;-81
2024/05/05 07:34:24;;;;;;;0.93;0.60;;;;;;;;;;5526895;26;21046;-81
2024/05/05 07:36:50;;;;;;;0.60;0.50;;;;;;;;;;5525666;26;20327;-81
2024/05/05 07:39:17;;;;;;;2.00;0.90;;;;;;;;;;5525353;26;20327;-81
2024/05/05 07:41:43;;;;;;;0.63;0.43;;;;;;;;;;5527086;26;20332;-81
2024/05/05 07:44:09;;;;;;;1.80;0.57;;;;;;;;;;5530946;26;20511;-81
2024/05/05 07:46:35;;;;;;;1.15;0.60;;;;;;;;;;5532480;26;20324;-81
2024/05/05 07:49:01;;;;;;;1.88;0.63;;;;;;;;;;5532329;26;20324;-81
2024/05/05 07:51:27;;;;;;;0.93;0.60;;;;;;;;;;5532129;26;20362;-82
2024/05/05 07:53:53;;;;;;;0.60;0.50;;;;;;;;;;5532210;26;20327;-82
2024/05/05 07:56:19;;;;;;;1.27;0.70;;;;;;;;;;5531957;26;20315;-81
2024/05/05 07:58:45;;;;;;;0.95;0.75;;;;;;;;;;5532700;26;20405;-81
2024/05/05 08:01:11;;;;;;;0.93;0.80;;;;;;;;;;5531314;26;20324;-82
2024/05/05 08:03:37;;;;;;;1.38;0.70;;;;;;;;;;5530375;26;20319;-81
2024/05/05 08:06:03;;;;;;;1.25;0.95;;;;;;;;;;5530576;26;20355;-81
2024/05/05 08:08:29;;;;;;;1.40;0.98;;;;;;;;;;5531788;26;20363;-81
2024/05/05 08:10:55;;;;;;;0.90;0.80;;;;;;;;;;5532029;26;20319;-81
2024/05/05 08:13:21;;;;;;;2.57;1.50;;;;;;;;;;5530651;26;20351;-81
2024/05/05 08:15:47;;;;;;;1.05;0.80;;;;;;;;;;5530841;26;20328;-81
2024/05/05 08:18:14;;;;;;;1.77;1.13;;;;;;;;;;5529912;26;20367;-81
2024/05/05 08:20:40;;;;;;;0.87;0.87;;;;;;;;;;5530839;26;20545;-81
2024/05/05 08:23:06;;;;;;;1.25;0.70;;;;;;;;;;5530167;26;20331;-81
2024/05/05 08:25:32;;;;;;;0.80;0.80;;;;;;;;;;5530490;26;20336;-81
2024/05/05 08:27:58;;;;;;;1.25;0.80;;;;;;;;;;5531072;26;20323;-82
2024/05/05 08:30:24;;;;;;;2.03;0.90;;;;;;;;;;5530222;26;20316;-81
2024/05/05 08:32:50;;;;;;;1.00;0.80;;;;;;;;;;5531519;26;20323;-81
2024/05/05 08:35:16;;;;;;;0.80;0.80;;;;;;;;;;5530319;26;20335;-81
2024/05/05 08:37:42;;;;;;;0.80;0.77;;;;;;;;;;5531399;26;20755;-81
2024/05/05 08:40:11;;;;;;;1.10;0.80;;;;;;;;;;5531283;26;20393;-81
2024/05/05 08:42:47;;;;;;;1.63;0.80;;;;;;;;;;5531103;26;20344;-81
2024/05/05 08:45:13;;;;;;;0.70;0.70;;;;;;;;;;5534737;26;20319;-81
2024/05/05 08:47:43;;;;;;;0.82;0.73;;;;;;;;;;5533504;26;20319;-81
2024/05/05 08:50:09;;;;;;;1.50;0.70;;;;;;;;;;5533411;26;20312;-81
2024/05/05 08:52:38;;;;;;;0.75;0.68;;;;;;;;;;5533286;26;20308;-81
2024/05/05 08:55:05;;;;;;;0.88;0.63;;;;;;;;;;5525472;26;20362;-81
2024/05/05 08:57:34;;;;;;;0.77;0.70;;;;;;;;;;5526771;26;20360;-81
2024/05/05 09:00:00;;;;;;;0.40;0.40;;;;;;;;;;5533039;26;20319;-81
2024/05/05 09:02:27;;;;;;;1.00;0.70;;;;;;;;;;5501237;26;20315;-81
2024/05/05 09:04:53;;;;;;;0.63;0.60;;;;;;;;;;5532705;26;20352;-81
2024/05/05 09:07:19;;;;;;;0.75;0.57;;;;;;;;;;5533023;26;20927;-81
2024/05/05 09:09:45;;;;;;;0.50;0.50;;;;;;;;;;5531395;26;20364;-81
2024/05/05 09:12:12;;;;;;;0.82;0.70;;;;;;;;;;5531918;26;20351;-81
2024/05/05 09:14:38;;;;;;;0.57;0.57;;;;;;;;;;5532492;26;20365;-81
2024/05/05 09:17:07;;;;;;;1.43;0.70;;;;;;;;;;5531992;26;20342;-81
2024/05/05 09:19:33;;;;;;;1.30;0.63;;;;;;;;;;5525808;26;20334;-81
2024/05/05 09:21:59;;;;;;;0.50;0.50;;;;;;;;;;5532523;26;20362;-82
2024/05/05 09:24:26;;;;;;;0.93;0.60;;;;;;;;;;5533543;26;20673;-82
2024/05/05 09:26:52;;;;;;;0.80;0.52;;;;;;;;;;5533238;26;20340;-82
2024/05/05 09:29:19;;;;;;;1.63;0.50;;;;;;;;;;5533480;26;20331;-82
2024/05/05 09:31:48;;;;;;;0.55;0.35;;;;;;;;;;5534533;26;20394;-82
2024/05/05 09:34:14;;;;;;;1.00;0.55;;;;;;;;;;5508728;26;20331;-82
2024/05/05 09:36:41;;;;;;;0.90;0.50;;;;;;;;;;5532659;26;20371;-82
2024/05/05 09:39:08;;;;;;;0.87;0.50;;;;;;;;;;5533841;26;20335;-81
2024/05/05 09:41:35;;;;;;;0.50;0.40;;;;;;;;;;5534427;26;20327;-81
2024/05/05 09:44:01;;;;;;;0.45;0.45;;;;;;;;;;5533345;26;20399;-82
2024/05/05 09:46:30;;;;;;;0.50;0.47;;;;;;;;;;5533958;26;20316;-82
2024/05/05 09:49:11;;;;;;;0.90;0.60;;;;;;;;;;5533050;26;20432;-82
2024/05/05 09:51:40;;;;;;;0.70;0.50;;;;;;;;;;5534267;26;20332;-82
2024/05/05 09:54:12;;;;;;;0.93;0.40;;;;;;;;;;5533932;26;20339;-82
2024/05/05 09:56:46;;;;;;;0.50;0.30;;;;;;;;;;5518058;26;20328;-82
2024/05/05 09:59:17;;;;;;;1.00;0.60;;;;;;;;;;5534339;26;20332;-82
2024/05/05 10:01:44;;;;;;;0.90;0.37;;;;;;;;;;5533917;26;20840;-82
2024/05/05 10:04:10;;;;;;;0.35;0.35;;;;;;;;;;5533965;26;20320;-82
2024/05/05 10:06:41;;;;;;;0.40;0.40;;;;;;;;;;5534400;26;20320;-82
2024/05/05 10:09:07;;;;;;;1.10;0.50;;;;;;;;;;5534697;26;20323;-82
2024/05/05 10:11:33;;;;;;;1.57;0.57;;;;;;;;;;5532283;26;20364;-82
2024/05/05 10:14:02;;;;;;;0.75;0.50;;;;;;;;;;5534090;26;20328;-82
2024/05/05 10:16:29;;;;;;;1.27;0.50;;;;;;;;;;5533946;26;20319;-82
2024/05/05 10:18:55;;;;;;;0.98;0.52;;;;;;;;;;5534201;26;20792;-82
2024/05/05 10:21:23;;;;;;;0.40;0.40;;;;;;;;;;5534268;26;20449;-82
2024/05/05 10:23:49;;;;;;;0.75;0.50;;;;;;;;;;5534688;26;20320;-82
2024/05/05 10:26:15;;;;;;;0.40;0.40;;;;;;;;;;5535128;26;20403;-82
2024/05/05 10:28:41;;;;;;;0.45;0.40;;;;;;;;;;5533776;26;20376;-82
2024/05/05 10:31:18;;;;;;;1.05;0.40;;;;;;;;;;5534074;26;20362;-82
2024/05/05 10:33:47;;;;;;;0.70;0.40;;;;;;;;;;5533864;26;20328;-82
2024/05/05 10:36:13;;;;;;;0.93;0.45;;;;;;;;;;5533040;26;20360;-82
2024/05/05 10:38:40;;;;;;;0.80;0.40;;;;;;;;;;5533041;26;20332;-82
2024/05/05 10:41:06;;;;;;;0.50;0.30;;;;;;;;;;5533725;26;20328;-82
2024/05/05 10:43:32;;;;;;;1.00;0.40;;;;;;;;;;5533454;26;20896;-82
2024/05/05 10:45:58;;;;;;;0.70;0.30;;;;;;;;;;5532749;26;20335;-82
2024/05/05 10:48:24;;;;;;;0.40;0.30;;;;;;;;;;5533820;26;20398;-82
2024/05/05 10:50:51;;;;;;;0.43;0.40;;;;;;;;;;5533653;26;20328;-82
2024/05/05 10:53:17;;;;;;;0.63;0.63;;;;;;;;;;5533981;26;20676;-82
2024/05/05 10:55:43;;;;;;;0.57;0.50;;;;;;;;;;5533028;26;20323;-82
2024/05/05 10:58:09;;;;;;;0.40;0.40;;;;;;;;;;5533760;26;20860;-82
2024/05/05 11:00:35;;;;;;;0.57;0.38;;;;;;;;;;5533234;26;20327;-82
2024/05/05 11:03:05;;;;;;;2.17;0.38;;;;;;;;;;5533128;26;20356;-82
2024/05/05 11:05:33;;;;;;;0.77;0.40;;;;;;;;;;5532078;26;20336;-82
2024/05/05 11:08:02;;;;;;;0.50;0.30;;;;;;;;;;5532546;26;20328;-82
2024/05/05 11:10:28;;;;;;;0.50;0.50;;;;;;;;;;5532224;26;20383;-82
2024/05/05 11:12:55;;;;;;;0.95;0.80;;;;;;;;;;5532445;26;20369;-82
2024/05/05 11:15:24;;;;;;;0.77;0.60;;;;;;;;;;5532813;26;20440;-82
2024/05/05 11:18:09;;;;;;;2.13;0.68;;;;;;;;;;5532712;26;20324;-82
2024/05/05 11:20:41;;;;;;;0.70;0.60;;;;;;;;;;5530342;26;20320;-82
2024/05/05 11:23:08;;;;;;;0.75;0.60;;;;;;;;;;5528990;26;20331;-82
2024/05/05 11:25:34;;;;;;;1.50;0.35;;;;;;;;;;5532130;26;20371;-82
2024/05/05 11:28:00;;;;;;;0.50;0.40;;;;;;;;;;5532262;26;20332;-82
2024/05/05 11:30:39;;;;;;;1.00;0.50;;;;;;;;;;5531658;26;20331;-82
2024/05/05 11:33:06;;;;;;;0.90;0.60;;;;;;;;;;5532258;26;20319;-82
2024/05/05 11:35:33;;;;;;;0.98;0.40;;;;;;;;;;5527432;26;20415;-80
2024/05/05 11:37:59;;;;;;;0.40;0.38;;;;;;;;;;5525942;26;20331;-82
2024/05/05 11:40:37;;;;;;;4.60;0.77;;;;;;;;;;5526358;26;20332;-80
2024/05/05 11:43:03;;;;;;;0.60;0.40;;;;;;;;;;5494512;26;20374;-80
2024/05/05 11:45:29;;;;;;;2.00;0.50;;;;;;;;;;5527606;26;20327;-81
2024/05/05 11:48:15;;;;;;;1.88;0.68;;;;;;;;;;5525668;26;20316;-81
2024/05/05 11:51:00;;;;;;;1.40;0.73;;;;;;;;;;5524340;26;20769;-81
2024/05/05 11:53:28;;;;;;;1.30;0.50;;;;;;;;;;5525704;26;20320;-81
2024/05/05 11:56:30;;;;;;;0.90;0.73;;;;;;;;;;5509796;26;20338;-81
2024/05/05 11:58:56;;;;;;;1.60;1.00;;;;;;;;;;5343110;26;20344;-81
2024/05/05 12:01:24;;;;;;;1.95;1.10;;;;;;;;;;5458975;26;20851;-81
2024/05/05 12:03:50;;;;;;;2.58;0.75;;;;;;;;;;5524387;26;20368;-81
2024/05/05 12:06:15;;;;;;;0.75;0.60;;;;;;;;;;5525566;26;20320;-81
2024/05/05 12:08:42;;;;;;;0.38;0.30;;;;;;;;;;5525758;26;20320;-81
2024/05/05 12:11:09;;;;;;;0.50;0.50;;;;;;;;;;5526437;26;20331;-81
2024/05/05 12:13:35;;;;;;;1.15;0.40;;;;;;;;;;5511134;26;20322;-81
2024/05/05 12:16:24;;;;;;;0.30;0.20;;;;;;;;;;5514765;26;20355;-81
2024/05/05 12:19:00;;;;;;;0.52;0.40;;;;;;;;;;5472615;26;20316;-81
2024/05/05 12:21:26;;;;;;;1.70;1.50;;;;;;;;;;5525945;26;20493;-81
2024/05/05 12:23:53;;;;;;;1.07;0.20;;;;;;;;;;5525900;26;20320;-81
2024/05/05 12:26:21;;;;;;;0.63;0.20;;;;;;;;;;5525094;26;20320;-81
2024/05/05 12:28:52;;;;;;;0.70;0.40;;;;;;;;;;5468366;26;20326;-81
2024/05/05 12:31:19;;;;;;;0.37;0.20;;;;;;;;;;5525339;26;20398;-82
2024/05/05 12:33:45;;;;;;;0.43;0.20;;;;;;;;;;5522470;26;20391;-81
2024/05/05 12:36:11;;;;;;;0.37;0.30;;;;;;;;;;5465423;26;20322;-82
2024/05/05 12:38:37;;;;;;;0.88;0.30;;;;;;;;;;5516199;26;20369;-82
2024/05/05 12:41:03;;;;;;;1.63;0.22;;;;;;;;;;5514608;26;20334;-82
2024/05/05 12:43:29;;;;;;;0.40;0.22;;;;;;;;;;5510077;26;20343;-81
2024/05/05 12:46:13;;;;;;;0.60;0.20;;;;;;;;;;5525011;26;20323;-82
2024/05/05 12:49:16;;;;;;;1.60;0.30;;;;;;;;;;5525003;26;20328;-82
2024/05/05 12:51:42;;;;;;;1.10;0.20;;;;;;;;;;5467386;26;20326;-82
2024/05/05 12:54:08;;;;;;;1.00;0.17;;;;;;;;;;5515973;26;20312;-81
2024/05/05 12:56:34;;;;;;;1.70;0.40;;;;;;;;;;5494514;26;20324;-83
2024/05/05 12:59:00;;;;;;;0.80;0.20;;;;;;;;;;5530724;26;20367;-83
2024/05/05 13:01:26;;;;;;;1.00;0.30;;;;;;;;;;5531412;26;20316;-83
2024/05/05 13:03:52;;;;;;;1.23;0.45;;;;;;;;;;5531610;26;20324;-83
2024/05/05 13:06:18;;;;;;;0.68;0.40;;;;;;;;;;5531800;26;20355;-83
2024/05/05 13:08:44;;;;;;;0.43;0.27;;;;;;;;;;5532012;26;20364;-83
2024/05/05 13:11:10;;;;;;;0.85;0.30;;;;;;;;;;5531609;26;20356;-83
2024/05/05 13:13:36;;;;;;;1.50;0.22;;;;;;;;;;5530937;26;20324;-83
2024/05/05 13:16:02;;;;;;;0.63;0.40;;;;;;;;;;5531643;26;20352;-83
2024/05/05 13:18:28;;;;;;;0.50;0.30;;;;;;;;;;5530983;26;20323;-83
2024/05/05 13:20:54;;;;;;;0.73;0.40;;;;;;;;;;5531496;26;20327;-83
2024/05/05 13:23:20;;;;;;;1.45;0.35;;;;;;;;;;5531594;26;20323;-83
2024/05/05 13:25:46;;;;;;;0.55;0.30;;;;;;;;;;5524515;26;20709;-83
2024/05/05 13:28:12;;;;;;;1.27;0.40;;;;;;;;;;5531006;26;20328;-83
2024/05/05 13:30:38;;;;;;;0.45;0.25;;;;;;;;;;5534211;26;20705;-83
2024/05/05 13:33:04;;;;;;;1.30;0.30;;;;;;;;;;5535810;26;20323;-83
2024/05/05 13:35:30;;;;;;;0.40;0.40;;;;;;;;;;5535492;26;20706;-82
2024/05/05 13:37:56;;;;;;;1.50;0.30;;;;;;;;;;5535013;26;20364;-82
2024/05/05 13:40:22;;;;;;;0.60;0.20;;;;;;;;;;5534363;26;20332;-83
2024/05/05 13:42:48;;;;;;;0.50;0.28;;;;;;;;;;5489004;26;20779;-83
2024/05/05 13:45:14;;;;;;;0.43;0.40;;;;;;;;;;5521661;26;20387;-83
2024/05/05 13:47:40;;;;;;;0.70;0.40;;;;;;;;;;5534274;26;20363;-83
2024/05/05 13:50:06;;;;;;;0.27;0.20;;;;;;;;;;5535354;26;20323;-83
2024/05/05 13:52:32;;;;;;;0.60;0.30;;;;;;;;;;5502417;26;20399;-83
2024/05/05 13:54:58;;;;;;;0.50;0.30;;;;;;;;;;5527778;26;20330;-82
2024/05/05 13:57:24;;;;;;;0.50;0.20;;;;;;;;;;5526381;26;20339;-83
2024/05/05 13:59:50;;;;;;;0.22;0.20;;;;;;;;;;5534791;26;20401;-83
2024/05/05 14:02:16;;;;;;;0.80;0.50;;;;;;;;;;5502605;26;20315;-83
2024/05/05 14:04:42;;;;;;;0.77;0.40;;;;;;;;;;5534225;26;20319;-83
2024/05/05 14:07:08;;;;;;;0.60;0.33;;;;;;;;;;5534384;26;20327;-83
2024/05/05 14:09:34;;;;;;;0.65;0.43;;;;;;;;;;5533982;26;20363;-83
2024/05/05 14:12:00;;;;;;;0.50;0.25;;;;;;;;;;5534144;26;20346;-83
2024/05/05 14:14:26;;;;;;;0.32;0.20;;;;;;;;;;5534145;26;20328;-83
2024/05/05 14:16:52;;;;;;;0.80;0.20;;;;;;;;;;5501558;26;20320;-83
2024/05/05 14:19:18;;;;;;;0.30;0.22;;;;;;;;;;5534594;26;20368;-82
2024/05/05 14:21:44;;;;;;;0.95;0.30;;;;;;;;;;5534398;26;20719;-83
2024/05/05 14:24:10;;;;;;;0.73;0.23;;;;;;;;;;5501539;26;20408;-83
2024/05/05 14:26:36;;;;;;;1.00;0.30;;;;;;;;;;5534674;26;20320;-83
2024/05/05 14:29:02;;;;;;;0.30;0.20;;;;;;;;;;5534282;26;20372;-83
2024/05/05 14:31:28;;;;;;;0.47;0.10;;;;;;;;;;5534582;26;20339;-83
2024/05/05 14:33:54;;;;;;;0.80;0.30;;;;;;;;;;5533817;26;20323;-83
2024/05/05 14:36:20;;;;;;;0.52;0.30;;;;;;;;;;5533868;26;20351;-83
2024/05/05 14:38:46;;;;;;;0.30;0.20;;;;;;;;;;5533808;26;20316;-83
2024/05/05 14:41:12;;;;;;;1.70;0.20;;;;;;;;;;5499870;26;20390;-83